createdAt,value
2019-02-27T00:01:56.447Z,8.00
2019-02-27T00:04:25.624Z,8.20
2019-02-27T00:06:54.755Z,8.40
2019-02-27T00:09:23.527Z,7.83
2019-02-27T00:11:52.405Z,7.67
2019-02-27T00:14:21.292Z,8.20
2019-02-27T00:16:50.101Z,8.03
2019-02-27T00:19:18.823Z,7.13
2019-02-27T00:21:51.240Z,7.27
2019-02-27T00:24:20.133Z,8.37
2019-02-27T00:26:48.935Z,7.70
2019-02-27T00:29:17.640Z,7.40
2019-02-27T00:31:46.841Z,8.30
2019-02-27T00:34:15.722Z,7.87
2019-02-27T00:36:45.046Z,7.23
2019-02-27T00:39:14.640Z,7.57
2019-02-27T00:42:19.522Z,7.40
2019-02-27T00:44:45.125Z,7.47
2019-02-27T00:47:13.803Z,7.63
2019-02-27T00:49:42.517Z,7.00
2019-02-27T00:52:11.277Z,8.43
2019-02-27T00:54:39.975Z,7.87
2019-02-27T00:57:08.787Z,6.83
2019-02-27T00:59:37.526Z,7.13
2019-02-27T01:02:06.300Z,7.37
2019-02-27T01:04:35.637Z,7.03
2019-02-27T01:07:04.613Z,8.63
2019-02-27T01:09:33.415Z,7.83
2019-02-27T01:12:02.164Z,8.20
2019-02-27T01:14:31.152Z,8.20
2019-02-27T01:16:59.919Z,7.90
2019-02-27T01:19:28.708Z,8.77
2019-02-27T01:21:57.453Z,8.77
2019-02-27T01:24:26.302Z,8.37
2019-02-27T01:26:55.049Z,8.77
2019-02-27T01:29:23.786Z,7.70
2019-02-27T01:31:54.995Z,8.90
2019-02-27T01:34:23.058Z,8.43
2019-02-27T01:36:51.923Z,8.03
2019-02-27T01:39:20.826Z,8.47
2019-02-27T01:41:49.640Z,8.73
2019-02-27T01:44:18.489Z,8.60
2019-02-27T01:46:47.205Z,8.67
2019-02-27T01:49:16.695Z,9.50
2019-02-27T01:51:45.903Z,8.10
2019-02-27T01:54:15.059Z,8.93
2019-02-27T01:56:44.426Z,8.10
2019-02-27T01:59:14.023Z,9.37
2019-02-27T02:01:43.617Z,8.57
2019-02-27T02:04:15.214Z,8.33
2019-02-27T02:06:43.928Z,7.67
2019-02-27T02:09:32.777Z,7.93
2019-02-27T02:12:17.005Z,6.83
2019-02-27T02:15:00.309Z,6.90
2019-02-27T02:17:54.276Z,7.63
2019-02-27T02:20:45.430Z,6.93
2019-02-27T02:23:38.354Z,8.27
2019-02-27T02:26:43.201Z,8.03
2019-02-27T02:29:30.100Z,7.53
2019-02-27T02:32:23.378Z,7.40
2019-02-27T02:35:14.604Z,7.10
2019-02-27T02:38:17.117Z,7.43
2019-02-27T02:41:00.952Z,7.27
2019-02-27T02:44:00.909Z,7.43
2019-02-27T02:46:44.879Z,6.93
2019-02-27T02:49:12.147Z,7.13
2019-02-27T02:51:46.578Z,7.13
2019-02-27T02:54:27.120Z,7.03
2019-02-27T02:57:14.480Z,7.57
2019-02-27T02:59:52.000Z,7.67
2019-02-27T03:02:29.559Z,7.43
2019-02-27T03:05:00.539Z,7.37
2019-02-27T03:07:35.072Z,6.73
2019-02-27T03:10:11.073Z,6.97
2019-02-27T03:12:57.843Z,6.20
2019-02-27T03:15:35.346Z,8.10
2019-02-27T03:18:22.273Z,7.37
2019-02-27T03:21:08.751Z,6.87
2019-02-27T03:24:09.693Z,7.33
2019-02-27T03:26:42.528Z,6.20
2019-02-27T03:29:39.914Z,6.73
2019-02-27T03:32:14.554Z,5.73
2019-02-27T03:35:27.997Z,7.07
2019-02-27T03:38:00.257Z,6.57
2019-02-27T03:40:40.623Z,7.20
2019-02-27T03:43:23.971Z,7.43
2019-02-27T03:46:03.161Z,7.03
2019-02-27T03:48:46.791Z,7.57
2019-02-27T03:51:47.089Z,6.97
2019-02-27T03:54:38.538Z,7.43
2019-02-27T03:57:25.231Z,7.13
2019-02-27T04:00:02.885Z,7.20
2019-02-27T04:02:46.508Z,6.67
2019-02-27T04:05:33.149Z,7.07
2019-02-27T04:08:23.014Z,6.07
2019-02-27T04:10:53.159Z,7.50
2019-02-27T04:13:26.837Z,6.83
2019-02-27T04:15:54.359Z,7.57
2019-02-27T04:18:27.390Z,8.23
2019-02-27T04:20:52.469Z,7.47
2019-02-27T04:23:21.381Z,8.00
2019-02-27T04:25:50.452Z,8.20
2019-02-27T04:28:19.346Z,7.60
2019-02-27T04:30:51.006Z,8.13
2019-02-27T04:33:22.918Z,7.63
2019-02-27T04:35:49.036Z,6.73
2019-02-27T04:38:17.698Z,7.00
2019-02-27T04:40:46.463Z,7.20
2019-02-27T04:43:15.287Z,8.20
2019-02-27T04:45:47.600Z,8.47
2019-02-27T04:48:16.464Z,8.10
2019-02-27T04:50:45.340Z,7.63
2019-02-27T04:53:14.158Z,7.60
2019-02-27T04:55:43.144Z,7.67
2019-02-27T04:58:11.949Z,7.40
2019-02-27T05:00:40.878Z,7.97
2019-02-27T05:03:09.750Z,8.27
2019-02-27T05:05:39.123Z,7.87
2019-02-27T05:08:09.116Z,7.83
2019-02-27T05:10:38.184Z,8.57
2019-02-27T05:13:08.286Z,8.93
2019-02-27T05:15:39.596Z,8.33
2019-02-27T05:18:07.686Z,8.70
2019-02-27T05:20:36.381Z,9.77
2019-02-27T05:23:05.228Z,9.23
2019-02-27T05:25:34.025Z,9.20
2019-02-27T05:28:03.066Z,10.57
2019-02-27T05:30:31.902Z,9.83
2019-02-27T05:33:02.293Z,11.60
2019-02-27T05:35:31.094Z,10.00
2019-02-27T05:37:59.776Z,10.50
2019-02-27T05:40:28.626Z,11.37
2019-02-27T05:42:57.253Z,9.90
2019-02-27T05:45:31.165Z,10.97
2019-02-27T05:47:59.346Z,9.27
2019-02-27T05:50:33.989Z,10.50
2019-02-27T05:53:01.808Z,10.93
2019-02-27T05:55:30.476Z,11.13
2019-02-27T05:57:59.255Z,10.23
2019-02-27T06:00:34.003Z,11.07
2019-02-27T06:03:01.472Z,10.47
2019-02-27T06:05:30.744Z,10.27
2019-02-27T06:08:02.098Z,10.87
2019-02-27T06:10:29.894Z,10.07
2019-02-27T06:12:58.660Z,10.43
2019-02-27T06:15:28.598Z,10.37
2019-02-27T06:17:58.202Z,10.10
2019-02-27T06:20:26.890Z,11.23
2019-02-27T06:22:55.673Z,10.47
2019-02-27T06:25:24.491Z,10.87
2019-02-27T06:28:18.447Z,10.17
2019-02-27T06:30:30.677Z,10.43
2019-02-27T06:32:59.074Z,10.03
2019-02-27T06:35:27.982Z,10.47
2019-02-27T06:37:56.738Z,11.30
2019-02-27T06:40:25.466Z,11.03
2019-02-27T06:42:56.240Z,11.63
2019-02-27T06:45:25.082Z,11.13
2019-02-27T06:47:56.311Z,11.63
2019-02-27T06:50:26.070Z,10.87
2019-02-27T06:52:55.114Z,11.47
2019-02-27T06:55:25.492Z,11.10
2019-02-27T06:57:54.439Z,11.77
2019-02-27T07:00:27.346Z,11.60
2019-02-27T07:02:59.182Z,11.93
2019-02-27T07:05:32.199Z,11.53
2019-02-27T07:07:58.662Z,12.10
2019-02-27T07:10:27.678Z,12.03
2019-02-27T07:12:59.573Z,12.00
2019-02-27T07:15:33.585Z,11.60
2019-02-27T07:18:06.096Z,10.03
2019-02-27T07:20:35.666Z,11.07
2019-02-27T07:23:11.120Z,10.40
2019-02-27T07:25:42.033Z,10.13
2019-02-27T07:28:11.755Z,11.13
2019-02-27T07:30:42.520Z,10.33
2019-02-27T07:33:10.999Z,11.10
2019-02-27T07:35:42.416Z,11.47
2019-02-27T07:38:13.965Z,10.03
2019-02-27T07:40:44.461Z,11.37
2019-02-27T07:43:13.369Z,11.87
2019-02-27T07:45:47.839Z,11.23
2019-02-27T07:48:32.010Z,10.68
2019-02-27T07:51:05.679Z,10.67
2019-02-27T07:53:37.327Z,10.78
2019-02-27T07:56:10.111Z,12.33
2019-02-27T07:58:43.435Z,11.12
2019-02-27T08:01:14.208Z,10.72
2019-02-27T08:03:51.200Z,11.20
2019-02-27T08:06:20.911Z,11.20
2019-02-27T08:08:51.324Z,10.85
2019-02-27T08:11:21.750Z,10.98
2019-02-27T08:13:55.088Z,9.83
2019-02-27T08:16:23.936Z,9.80
2019-02-27T08:18:54.578Z,12.37
2019-02-27T08:21:24.788Z,10.43
2019-02-27T08:23:59.666Z,12.37
2019-02-27T08:26:31.486Z,10.98
2019-02-27T08:29:18.356Z,11.75
2019-02-27T08:35:16.744Z,10.60
2019-02-27T08:37:45.620Z,10.40
2019-02-27T08:40:15.175Z,10.18
2019-02-27T08:42:49.444Z,11.18
2019-02-27T08:45:26.667Z,10.85
2019-02-27T08:47:55.591Z,9.90
2019-02-27T08:50:24.837Z,10.43
2019-02-27T08:52:57.831Z,10.08
2019-02-27T08:55:29.791Z,10.72
2019-02-27T08:57:59.830Z,10.20
2019-02-27T09:00:33.096Z,10.68
2019-02-27T09:03:03.845Z,11.97
2019-02-27T09:05:36.067Z,12.05
2019-02-27T09:08:44.019Z,12.60
2019-02-27T09:11:11.411Z,13.18
2019-02-27T09:13:40.285Z,12.00
2019-02-27T09:16:11.152Z,12.37
2019-02-27T09:18:39.843Z,12.15
2019-02-27T09:21:08.886Z,13.50
2019-02-27T09:23:37.679Z,11.63
2019-02-27T09:26:06.545Z,11.97
2019-02-27T09:28:35.591Z,11.53
2019-02-27T09:31:04.615Z,12.15
2019-02-27T09:33:38.679Z,11.50
2019-02-27T09:36:04.214Z,11.63
2019-02-27T09:38:32.985Z,10.50
2019-02-27T09:41:02.799Z,9.80
2019-02-27T09:43:32.271Z,9.17
2019-02-27T09:46:01.158Z,9.37
2019-02-27T09:48:31.153Z,9.67
2019-02-27T09:51:00.579Z,9.63
2019-02-27T09:53:29.513Z,9.70
2019-02-27T09:56:01.456Z,8.75
2019-02-27T09:58:33.698Z,10.60
2019-02-27T10:01:14.298Z,10.00
2019-02-27T10:03:44.176Z,10.25
2019-02-27T10:06:13.206Z,10.82
2019-02-27T10:08:47.116Z,9.13
2019-02-27T10:11:26.167Z,8.75
2019-02-27T10:13:55.376Z,9.25
2019-02-27T10:16:25.222Z,9.55
2019-02-27T10:18:58.375Z,8.90
2019-02-27T10:21:27.348Z,8.05
2019-02-27T10:23:56.092Z,7.58
2019-02-27T10:26:24.979Z,6.83
2019-02-27T10:28:55.562Z,6.80
2019-02-27T10:31:25.983Z,6.43
2019-02-27T10:34:24.184Z,6.93
2019-02-27T10:37:13.293Z,6.97
2019-02-27T10:39:42.330Z,7.33
2019-02-27T10:42:12.216Z,6.20
2019-02-27T10:44:41.009Z,7.33
2019-02-27T10:47:09.756Z,7.47
2019-02-27T10:49:47.591Z,8.27
2019-02-27T10:52:24.061Z,9.53
2019-02-27T10:54:51.119Z,8.57
2019-02-27T10:57:21.087Z,10.40
2019-02-27T10:59:52.589Z,10.93
2019-02-27T11:02:23.577Z,11.63
2019-02-27T11:04:52.829Z,10.33
2019-02-27T11:07:23.575Z,9.37
2019-02-27T11:09:59.025Z,6.87
2019-02-27T11:12:26.874Z,6.70
2019-02-27T11:15:01.966Z,7.07
2019-02-27T11:17:30.943Z,7.00
2019-02-27T11:20:00.353Z,6.33
2019-02-27T11:22:31.657Z,7.03
2019-02-27T11:24:59.745Z,5.80
2019-02-27T11:27:28.715Z,5.07
2019-02-27T11:30:02.700Z,4.92
2019-02-27T11:32:29.734Z,3.47
2019-02-27T11:35:02.803Z,3.75
2019-02-27T11:37:33.202Z,3.05
2019-02-27T11:40:05.317Z,4.50
2019-02-27T11:42:36.104Z,3.95
2019-02-27T11:45:08.152Z,4.03
2019-02-27T11:47:36.874Z,4.47
2019-02-27T11:50:08.805Z,4.75
2019-02-27T11:52:48.587Z,4.30
2019-02-27T11:55:14.841Z,4.40
2019-02-27T11:57:45.690Z,3.92
2019-02-27T12:00:21.372Z,4.10
2019-02-27T12:02:50.175Z,4.75
2019-02-27T12:05:18.938Z,4.42
2019-02-27T12:07:50.747Z,4.03
2019-02-27T12:10:20.662Z,4.67
2019-02-27T12:12:49.418Z,4.00
2019-02-27T12:15:20.054Z,3.92
2019-02-27T12:17:48.838Z,4.15
2019-02-27T12:20:20.668Z,4.05
2019-02-27T12:23:10.163Z,4.65
2019-02-27T12:25:43.470Z,4.00
2019-02-27T12:28:12.417Z,3.75
2019-02-27T12:30:42.865Z,4.25
2019-02-27T12:33:11.652Z,4.03
2019-02-27T12:35:44.893Z,3.58
2019-02-27T12:38:13.864Z,3.90
2019-02-27T12:40:42.560Z,4.28
2019-02-27T12:43:18.344Z,3.85
2019-02-27T12:45:46.286Z,3.87
2019-02-27T12:48:16.668Z,3.27
2019-02-27T12:50:45.258Z,2.77
2019-02-27T12:53:13.897Z,3.37
2019-02-27T12:55:42.742Z,3.42
2019-02-27T12:58:13.374Z,2.70
2019-02-27T13:00:43.789Z,3.10
2019-02-27T13:03:12.571Z,3.25
2019-02-27T13:05:42.950Z,2.77
2019-02-27T13:08:12.694Z,3.27
2019-02-27T13:10:41.799Z,2.70
2019-02-27T13:13:11.981Z,3.05
2019-02-27T13:15:41.697Z,2.98
2019-02-27T13:18:12.306Z,2.60
2019-02-27T13:20:45.659Z,3.27
2019-02-27T13:23:14.398Z,2.77
2019-02-27T13:25:44.609Z,3.10
2019-02-27T13:28:14.660Z,3.60
2019-02-27T13:30:43.866Z,3.58
2019-02-27T13:33:12.724Z,3.47
2019-02-27T13:35:44.065Z,3.70
2019-02-27T13:38:17.624Z,3.50
2019-02-27T13:40:44.966Z,4.22
2019-02-27T13:43:21.133Z,3.87
2019-02-27T13:45:52.732Z,3.30
2019-02-27T13:48:20.473Z,3.50
2019-02-27T13:50:49.216Z,3.60
2019-02-27T13:53:18.086Z,3.83
2019-02-27T13:55:48.312Z,4.50
2019-02-27T13:58:17.384Z,3.55
2019-02-27T14:00:46.266Z,4.08
2019-02-27T14:03:15.093Z,3.92
2019-02-27T14:05:44.444Z,3.87
2019-02-27T14:08:13.611Z,4.10
2019-02-27T14:10:44.444Z,4.03
2019-02-27T14:13:13.042Z,4.70
2019-02-27T14:15:41.815Z,3.80
2019-02-27T14:18:13.353Z,4.40
2019-02-27T14:20:41.024Z,4.83
2019-02-27T14:23:11.988Z,4.93
2019-02-27T14:25:40.191Z,4.20
2019-02-27T14:28:08.908Z,5.13
2019-02-27T14:30:40.769Z,5.53
2019-02-27T14:33:10.966Z,5.17
2019-02-27T14:35:40.031Z,5.37
2019-02-27T14:38:08.648Z,5.10
2019-02-27T14:40:40.932Z,6.23
2019-02-27T14:43:08.052Z,5.90
2019-02-27T14:45:39.721Z,6.20
2019-02-27T14:48:07.504Z,6.30
2019-02-27T14:50:36.460Z,7.10
2019-02-27T14:53:06.496Z,6.77
2019-02-27T14:55:37.285Z,6.20
2019-02-27T14:58:08.466Z,5.67
2019-02-27T15:00:40.914Z,6.27
2019-02-27T15:03:08.653Z,6.77
2019-02-27T15:05:42.823Z,7.67
2019-02-27T15:08:08.078Z,6.93
2019-02-27T15:10:40.150Z,8.13
2019-02-27T15:13:08.418Z,8.70
2019-02-27T15:15:43.162Z,7.93
2019-02-27T15:18:08.632Z,8.40
2019-02-27T15:20:39.960Z,9.43
2019-02-27T15:23:11.061Z,8.77
2019-02-27T15:25:43.140Z,9.53
2019-02-27T15:28:12.027Z,8.93
2019-02-27T15:30:40.526Z,9.90
2019-02-27T15:33:09.273Z,9.37
2019-02-27T15:35:38.175Z,9.57
2019-02-27T15:38:11.252Z,9.67
2019-02-27T15:40:38.396Z,9.27
2019-02-27T15:43:11.488Z,10.07
2019-02-27T15:45:47.265Z,9.50
2019-02-27T15:48:10.855Z,9.03
2019-02-27T15:50:39.828Z,11.10
2019-02-27T15:53:08.690Z,9.57
2019-02-27T15:55:38.573Z,10.40
2019-02-27T15:58:07.446Z,9.57
2019-02-27T16:00:36.246Z,10.27
2019-02-27T16:03:05.161Z,9.57
2019-02-27T16:05:33.912Z,11.13
2019-02-27T16:08:02.745Z,10.30
2019-02-27T16:10:31.615Z,9.67
2019-02-27T16:13:01.316Z,9.80
2019-02-27T16:15:30.390Z,10.00
2019-02-27T16:17:59.081Z,10.40
2019-02-27T16:20:28.858Z,10.53
2019-02-27T16:22:57.661Z,10.33
2019-02-27T16:25:30.082Z,10.40
2019-02-27T16:27:59.033Z,9.43
2019-02-27T16:30:32.311Z,10.73
2019-02-27T16:32:59.798Z,9.43
2019-02-27T16:35:28.481Z,9.37
2019-02-27T16:37:57.967Z,10.57
2019-02-27T16:40:30.759Z,10.50
2019-02-27T16:42:59.691Z,10.20
2019-02-27T16:45:36.649Z,10.03
2019-02-27T16:48:04.404Z,10.73
2019-02-27T16:50:33.182Z,11.47
2019-02-27T16:53:01.815Z,10.43
2019-02-27T16:55:35.670Z,11.00
2019-02-27T16:58:01.942Z,11.73
2019-02-27T17:00:37.305Z,11.90
2019-02-27T17:03:06.039Z,11.53
2019-02-27T17:05:34.809Z,11.53
2019-02-27T17:08:03.675Z,11.57
2019-02-27T17:10:36.913Z,11.47
2019-02-27T17:13:05.700Z,12.27
2019-02-27T17:15:35.867Z,11.30
2019-02-27T17:18:05.065Z,12.43
2019-02-27T17:20:33.802Z,12.13
2019-02-27T17:23:06.843Z,11.40
2019-02-27T17:25:33.073Z,12.13
2019-02-27T17:28:01.936Z,12.17
2019-02-27T17:30:36.379Z,12.10
2019-02-27T17:33:05.097Z,12.63
2019-02-27T17:35:34.518Z,12.17
2019-02-27T17:38:06.968Z,12.23
2019-02-27T17:40:37.486Z,12.30
2019-02-27T17:43:06.886Z,13.30
2019-02-27T17:45:36.040Z,13.90
2019-02-27T17:48:09.281Z,13.23
2019-02-27T17:50:37.241Z,13.30
2019-02-27T17:53:06.133Z,13.70
2019-02-27T17:55:35.064Z,14.60
2019-02-27T17:58:05.466Z,15.57
2019-02-27T18:00:39.077Z,15.43
2019-02-27T18:03:07.987Z,16.07
2019-02-27T18:05:36.961Z,14.70
2019-02-27T18:08:05.885Z,16.37
2019-02-27T18:10:37.633Z,16.23
2019-02-27T18:13:05.386Z,14.50
2019-02-27T18:15:39.052Z,15.93
2019-02-27T18:18:10.604Z,17.27
2019-02-27T18:20:38.597Z,18.47
2019-02-27T18:23:08.990Z,18.37
2019-02-27T18:25:41.037Z,19.03
2019-02-27T18:28:08.429Z,20.30
2019-02-27T18:30:37.382Z,21.03
2019-02-27T18:33:06.258Z,19.57
2019-02-27T18:35:35.260Z,22.17
2019-02-27T18:38:04.162Z,19.83
2019-02-27T18:40:32.952Z,20.67
2019-02-27T18:43:01.929Z,20.70
2019-02-27T18:45:31.070Z,20.43
2019-02-27T18:47:59.938Z,21.47
2019-02-27T18:50:28.788Z,23.67
2019-02-27T18:52:57.654Z,21.70
2019-02-27T18:55:30.892Z,22.97
2019-02-27T18:57:57.317Z,22.57
2019-02-27T19:00:27.493Z,23.37
2019-02-27T19:02:59.021Z,23.80
2019-02-27T19:05:27.961Z,23.90
2019-02-27T19:07:56.719Z,24.47
2019-02-27T19:10:25.691Z,23.40
2019-02-27T19:12:54.614Z,24.90
2019-02-27T19:15:26.052Z,25.07
2019-02-27T19:17:55.328Z,25.37
2019-02-27T19:20:27.120Z,26.53
2019-02-27T19:22:55.860Z,26.10
2019-02-27T19:25:24.775Z,27.40
2019-02-27T19:27:54.738Z,28.00
2019-02-27T19:30:27.636Z,28.73
2019-02-27T19:33:01.880Z,29.60
2019-02-27T19:35:32.908Z,29.53
2019-02-27T19:38:03.683Z,30.30
2019-02-27T19:40:33.591Z,30.80
2019-02-27T19:43:07.382Z,30.93
2019-02-27T19:45:36.667Z,32.70
2019-02-27T19:48:09.378Z,34.93
2019-02-27T19:50:38.171Z,34.80
2019-02-27T19:53:09.909Z,32.03
2019-02-27T19:55:40.468Z,33.60
2019-02-27T19:58:11.173Z,34.73
2019-02-27T20:00:48.023Z,34.67
2019-02-27T20:03:16.186Z,34.10
2019-02-27T20:05:44.518Z,35.37
2019-02-27T20:08:13.451Z,38.40
2019-02-27T20:10:44.169Z,38.43
2019-02-27T20:13:13.285Z,38.23
2019-02-27T20:15:42.745Z,38.17
2019-02-27T20:18:13.036Z,33.73
2019-02-27T20:23:35.287Z,38.30
2019-02-27T20:26:14.279Z,37.37
2019-02-27T20:28:45.237Z,37.97
2019-02-27T20:31:19.718Z,37.33
2019-02-27T20:33:46.614Z,38.90
2019-02-27T20:36:16.909Z,39.37
2019-02-27T20:38:52.843Z,37.23
2019-02-27T20:41:21.957Z,37.27
2019-02-27T20:43:51.066Z,35.47
2019-02-27T20:46:20.027Z,40.97
2019-02-27T20:48:50.720Z,37.23
2019-02-27T20:51:29.109Z,37.50
2019-02-27T20:53:58.366Z,39.83
2019-02-27T20:56:27.390Z,39.33
2019-02-27T20:58:58.001Z,38.10
2019-02-27T21:01:28.829Z,38.27
2019-02-27T21:04:02.305Z,38.47
2019-02-27T21:06:30.220Z,38.57
2019-02-27T21:08:59.209Z,38.63
2019-02-27T21:11:29.912Z,36.27
2019-02-27T21:13:58.562Z,34.57
2019-02-27T21:16:27.419Z,36.70
2019-02-27T21:18:56.287Z,34.30
2019-02-27T21:21:25.190Z,38.17
2019-02-27T21:23:56.038Z,37.63
2019-02-27T21:26:26.017Z,37.93
2019-02-27T21:28:58.535Z,35.30
2019-02-27T21:31:27.525Z,36.57
2019-02-27T21:33:56.703Z,35.67
2019-02-27T21:39:22.503Z,35.93
2019-02-27T21:41:54.395Z,39.17
2019-02-27T21:44:25.764Z,38.23
2019-02-27T21:46:53.819Z,40.53
2019-02-27T21:49:22.667Z,38.20
2019-02-27T21:51:51.523Z,40.27
2019-02-27T21:54:20.376Z,36.60
2019-02-27T21:56:51.867Z,38.80
2019-02-27T21:59:28.637Z,41.60
2019-02-27T22:01:59.944Z,42.53
2019-02-27T22:04:29.196Z,40.90
2019-02-27T22:07:00.806Z,39.70
2019-02-27T22:09:29.903Z,40.60
2019-02-27T22:12:01.220Z,41.90
2019-02-27T22:14:29.098Z,39.57
2019-02-27T22:16:57.802Z,40.77
2019-02-27T22:19:26.714Z,40.20
2019-02-27T22:21:55.489Z,39.67
2019-02-27T22:24:24.286Z,40.93
2019-02-27T22:26:53.121Z,41.67
2019-02-27T22:29:21.931Z,40.43
2019-02-27T22:31:50.739Z,42.17
2019-02-27T22:34:19.623Z,37.70
2019-02-27T22:36:48.601Z,42.80
2019-02-27T22:39:18.999Z,39.73
2019-02-27T22:41:47.697Z,41.73
2019-02-27T22:44:16.388Z,38.67
2019-02-27T22:46:47.807Z,38.77
2019-02-27T22:49:15.700Z,41.57
2019-02-27T22:51:47.388Z,39.30
2019-02-27T22:54:14.852Z,40.93
2019-02-27T22:56:43.580Z,41.57
2019-02-27T22:59:12.505Z,41.57
2019-02-27T23:01:49.134Z,38.20
2019-02-27T23:04:19.519Z,41.70
2019-02-27T23:06:48.364Z,41.67
2019-02-27T23:09:19.002Z,38.83
2019-02-27T23:11:48.077Z,40.10
2019-02-27T23:14:18.884Z,39.27
2019-02-27T23:16:47.859Z,39.60
2019-02-27T23:19:16.847Z,40.17
2019-02-27T23:21:49.777Z,39.60
2019-02-27T23:24:21.467Z,38.97
2019-02-27T23:26:54.352Z,38.03
2019-02-27T23:29:20.897Z,38.40
2019-02-27T23:31:49.768Z,34.70
2019-02-27T23:34:18.694Z,36.50
2019-02-27T23:36:47.555Z,37.73
2019-02-27T23:39:35.380Z,39.10
2019-02-27T23:42:04.523Z,36.07
2019-02-27T23:44:33.135Z,38.40
2019-02-27T23:47:02.022Z,35.23
2019-02-27T23:49:30.756Z,38.93
2019-02-27T23:51:59.567Z,40.23
2019-02-27T23:54:35.453Z,39.30
2019-02-27T23:57:01.746Z,38.33
2019-02-27T23:59:32.989Z,37.70
